Time;durP1;ratioP1;P1;durP2;ratioP2;P2;SDS_P1;SDS_P2;PMS_P1;PMS_P2;Temp;Humidity;BMP_temperature;BMP_pressure;BME280_temperature;BME280_humidity;BME280_pressure;Samples;Min_cycle;Max_cycle;Signal;HPM_P1;HPM_P2
2023/04/20 00:01:04;;;;;;;1.48;1.27;;;8.70;93.50;;;;;;5064967;28;20029;-39
2023/04/20 00:03:31;;;;;;;1.58;1.40;;;8.60;93.90;;;;;;5058580;28;20028;-38
2023/04/20 00:06:00;;;;;;;1.38;1.17;;;8.60;93.80;;;;;;5054982;28;20040;-38
2023/04/20 00:08:27;;;;;;;1.98;1.40;;;8.60;94.30;;;;;;5055718;28;20037;-38
2023/04/20 00:10:52;;;;;;;7.72;1.38;;;8.50;94.00;;;;;;5063300;28;20020;-38
2023/04/20 00:13:18;;;;;;;1.83;1.27;;;8.50;94.10;;;;;;5058744;28;20394;-34
2023/04/20 00:15:44;;;;;;;7.18;1.40;;;8.50;94.20;;;;;;5072148;28;20481;-38
2023/04/20 00:18:10;;;;;;;6.10;1.20;;;8.40;94.40;;;;;;5073352;28;20052;-38
2023/04/20 00:20:36;;;;;;;2.55;1.40;;;8.40;94.60;;;;;;5074761;28;20370;-36
2023/04/20 00:23:02;;;;;;;1.65;1.25;;;8.30;94.90;;;;;;5072976;28;20024;-36
2023/04/20 00:25:29;;;;;;;2.38;1.40;;;8.40;94.70;;;;;;5064247;28;20482;-36
2023/04/20 00:27:55;;;;;;;1.50;1.38;;;8.30;94.90;;;;;;5054650;28;20503;-38
2023/04/20 00:30:21;;;;;;;2.22;1.08;;;8.20;94.90;;;;;;5053835;28;20490;-33
2023/04/20 00:32:47;;;;;;;1.52;1.40;;;8.20;95.40;;;;;;5056385;28;20029;-35
2023/04/20 00:35:12;;;;;;;4.18;1.70;;;8.10;95.70;;;;;;5072820;28;20037;-40
2023/04/20 00:37:39;;;;;;;4.32;1.33;;;8.20;95.40;;;;;;5072135;28;20539;-37
2023/04/20 00:40:06;;;;;;;5.32;1.77;;;8.10;95.20;;;;;;5074385;28;20473;-38
2023/04/20 00:42:31;;;;;;;1.77;1.05;;;8.10;95.50;;;;;;5072988;28;20029;-37
2023/04/20 00:44:57;;;;;;;3.65;1.50;;;8.10;95.60;;;;;;5071158;28;20032;-36
2023/04/20 00:47:23;;;;;;;3.30;1.75;;;8.00;95.70;;;;;;5072971;28;20038;-39
2023/04/20 00:49:49;;;;;;;1.50;1.20;;;8.00;95.90;;;;;;5070609;28;20432;-36
2023/04/20 00:52:15;;;;;;;1.70;1.48;;;7.90;96.20;;;;;;5073902;28;20024;-39
2023/04/20 00:54:41;;;;;;;2.05;1.30;;;7.90;96.40;;;;;;5072070;28;20074;-40
2023/04/20 00:57:07;;;;;;;3.28;1.48;;;7.80;96.40;;;;;;5066945;28;20025;-38
2023/04/20 00:59:33;;;;;;;2.30;1.55;;;7.70;96.40;;;;;;5060337;28;20556;-39
2023/04/20 01:01:59;;;;;;;5.18;1.45;;;7.70;96.50;;;;;;5066512;28;20078;-37
2023/04/20 01:04:25;;;;;;;2.15;1.10;;;7.70;96.60;;;;;;5063580;28;20089;-39
2023/04/20 01:06:51;;;;;;;1.75;1.50;;;7.70;96.60;;;;;;5073434;28;20465;-39
2023/04/20 01:09:16;;;;;;;2.30;1.70;;;7.70;96.50;;;;;;5069891;28;20108;-42
2023/04/20 01:11:42;;;;;;;7.65;1.85;;;7.70;96.70;;;;;;5068564;28;20025;-40
2023/04/20 01:14:08;;;;;;;2.08;1.17;;;7.70;96.60;;;;;;5069589;28;20017;-42
2023/04/20 01:16:35;;;;;;;2.10;1.27;;;7.70;96.70;;;;;;5070242;28;20396;-41
2023/04/20 01:19:00;;;;;;;2.10;1.23;;;7.70;96.80;;;;;;5064432;28;20495;-42
2023/04/20 01:21:26;;;;;;;4.00;1.75;;;7.70;97.10;;;;;;5065253;28;20032;-41
2023/04/20 01:23:52;;;;;;;2.25;1.83;;;7.80;97.30;;;;;;5069487;28;20032;-41
2023/04/20 01:26:19;;;;;;;2.30;1.25;;;7.80;97.20;;;;;;5073207;28;20035;-44
2023/04/20 01:28:45;;;;;;;1.90;1.05;;;7.80;97.10;;;;;;5073561;28;20469;-41
2023/04/20 01:31:12;;;;;;;2.95;1.70;;;7.90;97.30;;;;;;5070434;28;20493;-41
2023/04/20 01:33:38;;;;;;;3.58;1.38;;;8.00;97.10;;;;;;5070932;28;20060;-40
2023/04/20 01:36:06;;;;;;;3.15;1.60;;;8.00;97.50;;;;;;5073107;28;20036;-40
2023/04/20 01:38:33;;;;;;;2.13;1.42;;;7.90;97.40;;;;;;5072118;28;20056;-41
2023/04/20 01:41:00;;;;;;;2.60;1.67;;;8.00;97.50;;;;;;5067808;28;20036;-41
2023/04/20 01:43:26;;;;;;;7.20;1.80;;;8.00;97.60;;;;;;5053022;28;20032;-40
2023/04/20 01:45:52;;;;;;;2.47;1.63;;;7.90;97.70;;;;;;5059311;28;20025;-41
2023/04/20 01:48:18;;;;;;;3.42;1.70;;;8.00;97.90;;;;;;5071556;28;20384;-41
2023/04/20 01:50:43;;;;;;;3.20;1.73;;;7.90;98.10;;;;;;5072962;28;20028;-47
2023/04/20 01:53:09;;;;;;;2.38;1.60;;;7.90;98.10;;;;;;5073200;28;20075;-43
2023/04/20 01:55:35;;;;;;;6.18;1.95;;;7.80;98.30;;;;;;5071937;28;20036;-46
2023/04/20 01:58:01;;;;;;;2.40;1.50;;;7.90;98.50;;;;;;5071801;28;20523;-39
2023/04/20 02:00:26;;;;;;;3.00;1.48;;;7.80;98.60;;;;;;5072847;28;20119;-41
2023/04/20 02:02:52;;;;;;;3.22;2.22;;;7.80;98.80;;;;;;5071687;28;20476;-42
2023/04/20 02:05:17;;;;;;;2.95;1.38;;;7.80;98.90;;;;;;5071240;28;20528;-40
2023/04/20 02:07:43;;;;;;;1.52;1.20;;;7.80;99.10;;;;;;5071539;28;20096;-42
2023/04/20 02:10:09;;;;;;;4.60;1.90;;;7.80;99.30;;;;;;5071547;28;20021;-41
2023/04/20 02:12:35;;;;;;;2.53;1.80;;;7.70;99.60;;;;;;5072969;28;20104;-40
2023/04/20 02:15:01;;;;;;;3.58;1.75;;;7.70;99.80;;;;;;5067097;28;20079;-40
2023/04/20 02:17:27;;;;;;;1.60;1.17;;;7.70;99.90;;;;;;5071498;28;20519;-41
2023/04/20 02:19:52;;;;;;;3.58;1.73;;;7.70;99.90;;;;;;5066292;28;20071;-42
2023/04/20 02:22:18;;;;;;;4.60;1.10;;;7.70;99.90;;;;;;5052453;28;20459;-47
2023/04/20 02:24:44;;;;;;;3.35;1.42;;;7.70;99.90;;;;;;5071029;28;20086;-41
2023/04/20 02:27:10;;;;;;;1.58;1.30;;;7.80;99.90;;;;;;5059446;28;20060;-42
2023/04/20 02:29:35;;;;;;;4.32;1.60;;;7.80;99.90;;;;;;5064375;28;20116;-44
2023/04/20 02:32:01;;;;;;;6.72;2.15;;;7.80;99.90;;;;;;5068663;28;20390;-41
2023/04/20 02:34:27;;;;;;;3.53;1.85;;;7.90;99.90;;;;;;5065571;28;20482;-36
2023/04/20 02:36:52;;;;;;;2.83;1.60;;;8.00;99.90;;;;;;5061344;28;20025;-41
2023/04/20 02:39:18;;;;;;;1.90;1.58;;;8.00;99.90;;;;;;5052162;28;20413;-39
2023/04/20 02:41:44;;;;;;;2.40;1.30;;;8.10;99.90;;;;;;5070977;28;20111;-38
2023/04/20 02:44:10;;;;;;;2.08;1.63;;;8.10;99.90;;;;;;5071030;28;20048;-41
2023/04/20 02:46:35;;;;;;;3.47;1.52;;;8.10;99.90;;;;;;5068261;28;20070;-41
2023/04/20 02:49:02;;;;;;;5.15;1.83;;;8.10;99.90;;;;;;5071291;28;20103;-40
2023/04/20 02:51:28;;;;;;;2.20;1.55;;;8.10;99.90;;;;;;5072678;28;20020;-41
2023/04/20 02:53:54;;;;;;;2.42;2.10;;;8.20;99.90;;;;;;5072282;28;20389;-41
2023/04/20 02:56:20;;;;;;;3.55;1.40;;;8.10;99.90;;;;;;5070349;28;20040;-40
2023/04/20 02:58:47;;;;;;;2.80;1.63;;;8.10;99.90;;;;;;5076161;28;20516;-40
2023/04/20 03:01:13;;;;;;;5.65;1.65;;;8.10;99.90;;;;;;5074271;28;20036;-41
2023/04/20 03:03:38;;;;;;;3.47;1.67;;;8.10;99.90;;;;;;5075089;28;20024;-40
2023/04/20 03:06:04;;;;;;;2.85;1.73;;;8.10;99.90;;;;;;5073781;28;20039;-43
2023/04/20 03:08:30;;;;;;;3.78;1.75;;;8.10;99.90;;;;;;5075941;28;20083;-40
2023/04/20 03:10:56;;;;;;;5.82;1.80;;;8.20;99.90;;;;;;5074716;28;20035;-40
2023/04/20 03:13:21;;;;;;;2.90;1.90;;;8.20;99.90;;;;;;5074501;28;20020;-45
2023/04/20 03:15:47;;;;;;;4.85;1.75;;;8.30;99.90;;;;;;5074546;28;20036;-44
2023/04/20 03:18:12;;;;;;;3.28;1.75;;;8.30;99.90;;;;;;5074839;28;20044;-38
2023/04/20 03:20:39;;;;;;;3.78;1.95;;;8.40;99.90;;;;;;5075516;28;20028;-40
2023/04/20 03:23:05;;;;;;;1.85;1.33;;;8.40;99.90;;;;;;5072249;28;20032;-40
2023/04/20 03:25:31;;;;;;;2.35;1.67;;;8.50;99.90;;;;;;5060378;28;20029;-44
2023/04/20 03:27:56;;;;;;;1.65;1.42;;;8.50;99.90;;;;;;5075499;28;20028;-40
2023/04/20 03:30:22;;;;;;;2.50;1.50;;;8.60;99.90;;;;;;5073500;28;20041;-41
2023/04/20 03:32:48;;;;;;;1.73;1.50;;;8.60;99.90;;;;;;5075455;28;20028;-44
2023/04/20 03:35:13;;;;;;;1.75;1.60;;;8.70;99.90;;;;;;5074336;28;20020;-39
2023/04/20 03:37:39;;;;;;;6.35;2.40;;;8.80;99.90;;;;;;5066615;28;20028;-40
2023/04/20 03:40:08;;;;;;;3.88;1.88;;;8.80;99.90;;;;;;5058809;28;20115;-39
2023/04/20 03:42:34;;;;;;;6.43;1.70;;;8.90;99.90;;;;;;5069765;28;20025;-40
2023/04/20 03:44:59;;;;;;;2.05;1.20;;;8.90;99.90;;;;;;5075424;28;20054;-38
2023/04/20 03:47:25;;;;;;;4.32;1.50;;;9.00;99.90;;;;;;5075149;28;20025;-47
2023/04/20 03:49:51;;;;;;;2.22;1.60;;;9.00;99.90;;;;;;5072762;28;20052;-40
2023/04/20 03:52:16;;;;;;;3.28;1.30;;;9.10;99.90;;;;;;5075063;28;20059;-41
2023/04/20 03:54:42;;;;;;;6.75;1.23;;;9.10;99.90;;;;;;5075344;28;20071;-43
2023/04/20 03:57:07;;;;;;;1.38;1.27;;;9.10;99.90;;;;;;5073715;28;20104;-40
2023/04/20 03:59:33;;;;;;;8.15;1.45;;;9.10;99.90;;;;;;5067036;28;20036;-42
2023/04/20 04:01:59;;;;;;;3.42;1.75;;;9.10;99.90;;;;;;5072049;28;20583;-41
2023/04/20 04:04:25;;;;;;;11.60;1.40;;;9.10;99.90;;;;;;5073770;28;20032;-40
2023/04/20 04:06:51;;;;;;;1.70;1.38;;;9.10;99.90;;;;;;5072112;28;20025;-38
2023/04/20 04:09:16;;;;;;;1.95;1.45;;;9.10;99.90;;;;;;5074057;28;20035;-39
2023/04/20 04:11:42;;;;;;;2.17;1.40;;;9.20;99.90;;;;;;5069730;28;20282;-41
2023/04/20 04:14:09;;;;;;;2.17;1.23;;;9.30;99.90;;;;;;5074553;28;20029;-40
2023/04/20 04:16:35;;;;;;;4.43;1.65;;;9.30;99.90;;;;;;5069527;28;20041;-41
2023/04/20 04:19:00;;;;;;;5.13;1.40;;;9.30;99.90;;;;;;5074858;28;20381;-39
2023/04/20 04:21:27;;;;;;;2.45;1.25;;;9.30;99.90;;;;;;5073573;28;20032;-37
2023/04/20 04:23:52;;;;;;;4.70;1.40;;;9.30;99.90;;;;;;5072856;28;20116;-37
2023/04/20 04:26:20;;;;;;;2.90;1.38;;;9.30;99.90;;;;;;5072440;28;20103;-39
2023/04/20 04:28:46;;;;;;;2.95;1.83;;;9.30;99.90;;;;;;5073954;28;20059;-36
2023/04/20 04:31:11;;;;;;;4.32;1.33;;;9.40;99.90;;;;;;5067282;28;20033;-37
2023/04/20 04:33:37;;;;;;;3.22;1.60;;;9.40;99.90;;;;;;5054526;28;20029;-38
2023/04/20 04:36:04;;;;;;;4.15;2.20;;;9.30;99.90;;;;;;5059285;28;20025;-36
2023/04/20 04:38:32;;;;;;;1.90;1.20;;;9.30;99.90;;;;;;5054446;28;20504;-36
2023/04/20 04:40:57;;;;;;;;;;;9.30;99.90;;;;;;5057547;28;20393;-35
2023/04/20 04:43:23;;;;;;;1.67;1.42;;;9.40;99.90;;;;;;5070574;28;19908;-34
2023/04/20 04:45:49;;;;;;;6.05;1.40;;;9.40;99.90;;;;;;5072511;28;20115;-40
2023/04/20 04:48:14;;;;;;;1.42;1.10;;;9.40;99.90;;;;;;5073029;28;20423;-35
2023/04/20 04:50:40;;;;;;;3.78;1.20;;;9.40;99.90;;;;;;5072234;28;20031;-40
2023/04/20 04:53:06;;;;;;;3.25;1.50;;;9.40;99.90;;;;;;5073889;28;20037;-40
2023/04/20 04:55:32;;;;;;;3.08;1.02;;;9.50;99.90;;;;;;5070299;28;20103;-38
2023/04/20 04:57:57;;;;;;;3.08;1.50;;;9.50;99.90;;;;;;5054505;28;20576;-40
2023/04/20 05:00:25;;;;;;;4.47;1.33;;;9.50;99.90;;;;;;5059090;28;20029;-41
2023/04/20 05:02:54;;;;;;;3.08;1.50;;;9.50;99.90;;;;;;5074076;28;20473;-42
2023/04/20 05:05:20;;;;;;;3.38;1.60;;;9.50;99.90;;;;;;5072091;28;20021;-36
2023/04/20 05:07:46;;;;;;;3.40;1.20;;;9.60;99.90;;;;;;5064470;28;20469;-40
2023/04/20 05:10:11;;;;;;;2.25;1.52;;;9.60;99.90;;;;;;5073537;28;20026;-45
2023/04/20 05:12:38;;;;;;;3.47;1.10;;;9.70;99.90;;;;;;5072102;28;20028;-41
2023/04/20 05:15:05;;;;;;;2.60;1.43;;;9.70;99.90;;;;;;5067664;28;20092;-41
2023/04/20 05:17:31;;;;;;;4.00;1.42;;;9.70;99.90;;;;;;5067219;28;20278;-39
2023/04/20 05:19:56;;;;;;;1.23;1.00;;;9.70;99.90;;;;;;5067028;28;20055;-42
2023/04/20 05:22:22;;;;;;;4.03;1.92;;;9.60;99.90;;;;;;5062488;28;20017;-42
2023/04/20 05:24:48;;;;;;;4.15;1.40;;;9.50;99.90;;;;;;5070312;28;20028;-41
2023/04/20 05:27:13;;;;;;;7.95;1.27;;;9.60;99.90;;;;;;5062186;28;20089;-38
2023/04/20 05:29:39;;;;;;;3.38;1.30;;;9.60;99.90;;;;;;5073217;28;20384;-39
2023/04/20 05:32:05;;;;;;;5.93;1.50;;;9.50;99.90;;;;;;5073010;28;20047;-38
2023/04/20 05:34:30;;;;;;;1.98;1.20;;;9.50;99.90;;;;;;5072521;28;20016;-36
2023/04/20 05:36:58;;;;;;;4.90;1.30;;;9.40;99.90;;;;;;5061340;28;20032;-35
2023/04/20 05:39:23;;;;;;;2.55;1.88;;;9.30;99.90;;;;;;5073164;28;20381;-38
2023/04/20 05:41:49;;;;;;;2.75;1.88;;;9.30;99.90;;;;;;5071556;28;20025;-36
2023/04/20 05:44:15;;;;;;;3.75;1.08;;;9.40;99.90;;;;;;5071990;28;20503;-36
2023/04/20 05:46:40;;;;;;;8.70;2.40;;;9.40;99.90;;;;;;5066874;28;20048;-38
2023/04/20 05:49:06;;;;;;;5.93;1.35;;;9.40;99.90;;;;;;5052926;28;20029;-36
2023/04/20 05:51:32;;;;;;;2.25;1.48;;;9.30;99.90;;;;;;5066121;28;20024;-40
2023/04/20 05:54:00;;;;;;;3.72;1.23;;;9.30;99.90;;;;;;5071601;28;20031;-41
2023/04/20 05:56:25;;;;;;;3.00;1.30;;;9.30;99.90;;;;;;5072657;28;20025;-37
2023/04/20 05:58:52;;;;;;;2.50;1.45;;;9.30;99.90;;;;;;5059315;28;20055;-37
2023/04/20 06:01:18;;;;;;;3.15;1.25;;;9.20;99.90;;;;;;5060023;28;20025;-39
2023/04/20 06:03:43;;;;;;;3.97;1.42;;;9.20;99.90;;;;;;5070629;28;20028;-38
2023/04/20 06:06:09;;;;;;;2.92;1.30;;;9.10;99.90;;;;;;5070905;28;20056;-34
2023/04/20 06:08:35;;;;;;;7.82;1.23;;;9.20;99.90;;;;;;5055723;28;20790;-41
2023/04/20 06:11:01;;;;;;;2.40;1.40;;;9.10;99.90;;;;;;5068076;28;20104;-42
2023/04/20 06:13:27;;;;;;;4.55;1.65;;;9.10;99.90;;;;;;5071170;28;20485;-41
2023/04/20 06:15:53;;;;;;;4.53;1.23;;;9.10;99.90;;;;;;5071642;28;20085;-40
2023/04/20 06:18:19;;;;;;;2.92;1.35;;;9.20;99.90;;;;;;5058870;28;20041;-40
2023/04/20 06:20:45;;;;;;;1.73;1.45;;;9.20;99.90;;;;;;5051128;28;20028;-41
2023/04/20 06:23:11;;;;;;;4.68;1.73;;;9.30;99.90;;;;;;5052636;28;20029;-41
2023/04/20 06:25:37;;;;;;;3.55;1.60;;;9.40;99.90;;;;;;5052429;28;20024;-40
2023/04/20 06:28:03;;;;;;;5.25;1.23;;;9.40;99.90;;;;;;5060427;28;20025;-37
2023/04/20 06:30:29;;;;;;;2.97;1.15;;;9.40;99.90;;;;;;5064021;28;20489;-37
2023/04/20 06:32:55;;;;;;;2.25;1.33;;;9.50;99.90;;;;;;5072173;28;20024;-39
2023/04/20 06:35:22;;;;;;;1.65;1.38;;;9.50;99.90;;;;;;5075309;28;20013;-36
2023/04/20 06:37:48;;;;;;;2.42;1.10;;;9.50;99.90;;;;;;5076396;28;20020;-40
2023/04/20 06:40:14;;;;;;;1.65;1.30;;;9.40;99.90;;;;;;5074374;28;20027;-37
2023/04/20 06:42:39;;;;;;;2.03;1.38;;;9.40;99.90;;;;;;5056280;28;20025;-36
2023/04/20 06:45:06;;;;;;;5.30;1.88;;;9.30;99.90;;;;;;5061934;28;20468;-38
2023/04/20 06:47:32;;;;;;;6.38;1.27;;;9.30;99.90;;;;;;5074689;28;20028;-35
2023/04/20 06:50:03;;;;;;;2.38;1.40;;;9.20;99.90;;;;;;5074799;28;20012;-39
2023/04/20 06:52:30;;;;;;;8.13;2.65;;;9.10;99.90;;;;;;5067739;28;20028;-34
2023/04/20 06:54:58;;;;;;;4.78;1.73;;;9.00;99.90;;;;;;5056437;28;20029;-35
2023/04/20 06:57:24;;;;;;;7.60;2.22;;;9.00;99.90;;;;;;5064416;28;20029;-36
2023/04/20 06:59:49;;;;;;;6.80;1.80;;;8.90;99.90;;;;;;5055724;28;20025;-32
2023/04/20 07:02:15;;;;;;;1.92;1.60;;;8.90;99.90;;;;;;5056558;28;20238;-37
2023/04/20 07:04:40;;;;;;;3.30;1.70;;;8.80;99.90;;;;;;5067112;28;20055;-37
2023/04/20 07:07:06;;;;;;;6.32;1.90;;;8.60;99.90;;;;;;5064055;28;20029;-39
2023/04/20 07:09:32;;;;;;;5.03;2.00;;;8.50;99.90;;;;;;5074574;28;20384;-40
2023/04/20 07:11:58;;;;;;;5.03;2.15;;;8.30;99.90;;;;;;5055116;28;20726;-40
2023/04/20 07:14:23;;;;;;;8.48;2.10;;;8.20;99.90;;;;;;5068515;28;20025;-34
2023/04/20 07:16:52;;;;;;;5.78;2.22;;;8.10;99.90;;;;;;5075681;28;20024;-38
2023/04/20 07:19:18;;;;;;;6.55;2.58;;;8.00;99.90;;;;;;5074535;28;20029;-37
2023/04/20 07:21:44;;;;;;;4.40;1.85;;;7.90;99.90;;;;;;5075753;28;20350;-37
2023/04/20 07:24:10;;;;;;;2.30;1.73;;;7.80;99.90;;;;;;5075565;28;20029;-42
2023/04/20 07:26:36;;;;;;;3.08;2.20;;;7.80;99.90;;;;;;5074544;28;20492;-43
2023/04/20 07:29:01;;;;;;;2.15;1.42;;;7.80;99.90;;;;;;5075318;28;20021;-40
2023/04/20 07:31:27;;;;;;;3.33;2.08;;;7.90;99.90;;;;;;5073552;28;20056;-42
2023/04/20 07:33:52;;;;;;;7.10;2.38;;;7.90;99.90;;;;;;5063969;28;20539;-43
2023/04/20 07:36:20;;;;;;;7.18;1.98;;;7.90;99.90;;;;;;5057219;28;20029;-38
2023/04/20 07:38:46;;;;;;;4.63;2.13;;;8.00;99.90;;;;;;5065631;28;20440;-39
2023/04/20 07:41:14;;;;;;;3.28;1.85;;;8.00;99.90;;;;;;5066035;28;20028;-42
2023/04/20 07:43:40;;;;;;;4.68;1.98;;;8.10;99.90;;;;;;5062974;28;20119;-49
2023/04/20 07:46:06;;;;;;;6.70;2.08;;;8.20;99.90;;;;;;5065307;28;20136;-42
2023/04/20 07:48:35;;;;;;;4.95;1.90;;;8.20;99.90;;;;;;5061088;28;20429;-37
2023/04/20 07:51:00;;;;;;;4.70;2.17;;;8.20;99.90;;;;;;5065640;28;20532;-41
2023/04/20 07:53:27;;;;;;;4.50;2.33;;;8.10;99.90;;;;;;5068040;28;20089;-42
2023/04/20 07:55:53;;;;;;;4.65;1.98;;;8.00;99.90;;;;;;5067671;28;20500;-46
2023/04/20 07:58:20;;;;;;;3.35;2.58;;;8.00;99.90;;;;;;5070054;28;20032;-41
2023/04/20 08:00:46;;;;;;;6.90;2.63;;;7.90;99.90;;;;;;5071099;28;20469;-42
2023/04/20 08:03:13;;;;;;;6.88;2.78;;;7.90;99.90;;;;;;5072731;28;20795;-42
2023/04/20 08:05:39;;;;;;;4.60;2.15;;;7.90;99.90;;;;;;5059086;28;20054;-38
2023/04/20 08:08:05;;;;;;;6.90;2.35;;;7.90;99.90;;;;;;5062456;28;20028;-43
2023/04/20 08:10:31;;;;;;;2.78;1.90;;;7.90;99.90;;;;;;5069294;28;20124;-43
2023/04/20 08:12:57;;;;;;;2.83;2.17;;;8.00;99.90;;;;;;5071976;28;20123;-45
2023/04/20 08:15:23;;;;;;;4.10;2.05;;;7.90;99.90;;;;;;5071189;28;20477;-45
2023/04/20 08:17:48;;;;;;;4.70;2.22;;;7.90;99.90;;;;;;5074619;28;20095;-42
2023/04/20 08:20:14;;;;;;;3.95;2.05;;;7.80;99.90;;;;;;5073037;28;20025;-43
2023/04/20 08:22:40;;;;;;;4.93;2.47;;;7.80;99.90;;;;;;5064907;28;20069;-43
2023/04/20 08:25:06;;;;;;;2.75;2.17;;;7.80;99.90;;;;;;5072116;28;20069;-43
2023/04/20 08:27:31;;;;;;;3.63;2.58;;;7.80;99.90;;;;;;5072197;28;20086;-44
2023/04/20 08:29:57;;;;;;;2.28;1.83;;;7.80;99.90;;;;;;5071696;28;20035;-42
2023/04/20 08:32:25;;;;;;;2.72;2.20;;;7.80;99.90;;;;;;5067642;28;20036;-46
2023/04/20 08:34:52;;;;;;;5.07;2.42;;;7.90;99.90;;;;;;5074582;28;20025;-44
2023/04/20 08:37:17;;;;;;;3.28;2.30;;;8.00;99.90;;;;;;5070505;28;20017;-41
2023/04/20 08:39:43;;;;;;;3.58;1.77;;;8.00;99.90;;;;;;5054432;28;20035;-43
2023/04/20 08:42:09;;;;;;;6.35;2.08;;;8.00;99.90;;;;;;5069525;28;20393;-40
2023/04/20 08:44:35;;;;;;;5.43;3.35;;;8.20;99.90;;;;;;5072753;28;20032;-44
2023/04/20 08:47:02;;;;;;;6.38;2.03;;;8.20;99.90;;;;;;5069816;28;20093;-40
2023/04/20 08:49:29;;;;;;;36.28;8.70;;;8.20;99.90;;;;;;5069568;28;20107;-42
2023/04/20 08:51:55;;;;;;;6.27;3.00;;;8.20;99.90;;;;;;5056346;28;20024;-38
2023/04/20 08:54:20;;;;;;;4.57;2.05;;;8.20;99.90;;;;;;5070103;28;20496;-37
2023/04/20 08:56:47;;;;;;;5.47;2.63;;;8.10;99.90;;;;;;5064765;28;20036;-35
2023/04/20 08:59:14;;;;;;;18.98;2.95;;;8.20;99.90;;;;;;5063681;28;20095;-37
2023/04/20 09:01:44;;;;;;;4.10;1.95;;;8.20;99.90;;;;;;5065822;28;20078;-37
2023/04/20 09:04:16;;;;;;;5.30;3.10;;;8.20;99.90;;;;;;5070145;28;20488;-33
2023/04/20 09:06:50;;;;;;;5.07;2.20;;;8.20;99.90;;;;;;5067513;28;20090;-36
2023/04/20 09:09:17;;;;;;;6.80;2.92;;;8.20;99.90;;;;;;5066713;28;20473;-37
2023/04/20 09:11:43;;;;;;;3.33;2.13;;;8.30;99.90;;;;;;5058942;28;20103;-35
2023/04/20 09:14:11;;;;;;;2.92;2.03;;;8.30;99.90;;;;;;5063502;28;20066;-36
2023/04/20 09:16:38;;;;;;;;;;;8.40;99.90;;;;;;5073801;28;20028;-39
2023/04/20 09:19:04;;;;;;;4.23;1.87;;;8.50;99.90;;;;;;5063924;28;20258;-32
2023/04/20 09:21:31;;;;;;;6.45;2.13;;;8.50;99.90;;;;;;5058636;28;20055;-37
2023/04/20 09:24:01;;;;;;;6.63;1.47;;;8.50;99.90;;;;;;5066685;28;20034;-35
2023/04/20 09:26:30;;;;;;;3.28;2.13;;;8.60;99.90;;;;;;5066277;28;20651;-36
2023/04/20 09:28:56;;;;;;;3.38;2.58;;;8.60;99.90;;;;;;5064190;28;20028;-41
2023/04/20 09:31:22;;;;;;;2.78;2.25;;;8.60;99.90;;;;;;5066862;28;20049;-40
2023/04/20 09:34:02;;;;;;;3.67;2.33;;;8.70;99.90;;;;;;5069213;28;20495;-43
2023/04/20 09:36:37;;;;;;;3.83;2.47;;;9.00;99.90;;;;;;5055668;28;20362;-43
2023/04/20 09:39:09;;;;;;;4.43;2.58;;;9.20;99.90;;;;;;5067240;28;20469;-42
2023/04/20 09:41:36;;;;;;;2.67;2.08;;;9.60;99.90;;;;;;5069174;28;20048;-41
2023/04/20 09:44:02;;;;;;;2.70;2.22;;;9.90;99.90;;;;;;5066406;28;20470;-42
2023/04/20 09:46:32;;;;;;;4.00;2.20;;;10.10;99.90;;;;;;5063890;28;20020;-36
2023/04/20 09:49:00;;;;;;;5.78;2.40;;;10.10;99.90;;;;;;5063901;28;20050;-39
2023/04/20 09:51:26;;;;;;;2.63;2.10;;;10.00;99.90;;;;;;5061463;28;20070;-39
2023/04/20 09:53:57;;;;;;;2.38;2.17;;;10.00;99.90;;;;;;5055300;28;20040;-37
2023/04/20 09:56:23;;;;;;;9.52;2.53;;;10.20;99.90;;;;;;5072201;28;20481;-35
2023/04/20 09:58:50;;;;;;;5.22;2.40;;;10.10;99.90;;;;;;5063517;28;20027;-37
2023/04/20 10:01:16;;;;;;;5.63;2.70;;;10.10;99.90;;;;;;5062872;28;20553;-32
2023/04/20 10:03:42;;;;;;;2.70;2.17;;;10.20;99.90;;;;;;5063673;28;20029;-35
2023/04/20 10:06:26;;;;;;;4.35;2.80;;;10.20;99.90;;;;;;5068851;28;20507;-38
2023/04/20 10:08:52;;;;;;;9.63;2.15;;;10.20;99.90;;;;;;5066720;28;20016;-35
2023/04/20 10:11:29;;;;;;;3.67;2.80;;;10.20;99.90;;;;;;5065168;28;20483;-38
2023/04/20 10:13:56;;;;;;;4.22;2.72;;;10.10;99.90;;;;;;5066713;28;20397;-38
2023/04/20 10:16:22;;;;;;;3.47;2.47;;;10.20;99.90;;;;;;5070831;28;20033;-33
2023/04/20 10:19:02;;;;;;;5.03;2.40;;;10.10;99.90;;;;;;5068408;28;20389;-35
2023/04/20 10:21:32;;;;;;;4.63;2.42;;;9.80;99.90;;;;;;5063643;28;20040;-37
2023/04/20 10:24:02;;;;;;;4.53;2.95;;;9.80;99.90;;;;;;5070707;28;20446;-42
2023/04/20 10:26:44;;;;;;;4.20;2.47;;;9.90;99.90;;;;;;5066443;28;20495;-40
2023/04/20 10:29:30;;;;;;;3.58;3.08;;;10.30;99.90;;;;;;5069991;28;20027;-44
2023/04/20 10:31:56;;;;;;;7.18;2.80;;;10.90;99.90;;;;;;5059591;28;20045;-41
2023/04/20 10:34:32;;;;;;;4.82;3.47;;;11.00;99.90;;;;;;5068973;28;20074;-41
2023/04/20 10:37:12;;;;;;;6.90;2.83;;;11.00;99.90;;;;;;5073918;28;20052;-40
2023/04/20 10:39:45;;;;;;;3.38;2.80;;;11.10;99.90;;;;;;5063840;28;20469;-44
2023/04/20 10:42:11;;;;;;;12.52;3.08;;;11.10;99.90;;;;;;5051653;28;20025;-42
2023/04/20 10:44:50;;;;;;;7.50;2.63;;;11.10;99.90;;;;;;5060125;28;20029;-41
2023/04/20 10:47:17;;;;;;;5.95;3.05;;;10.90;99.90;;;;;;5064521;28;20492;-37
2023/04/20 10:49:43;;;;;;;6.97;3.38;;;10.60;99.90;;;;;;5066098;28;20384;-45
2023/04/20 10:52:09;;;;;;;5.30;2.70;;;10.50;99.90;;;;;;5068243;28;20514;-42
2023/04/20 10:54:39;;;;;;;5.13;2.53;;;10.60;99.90;;;;;;5083666;28;20028;-44
2023/04/20 10:57:05;;;;;;;3.30;2.55;;;10.60;99.90;;;;;;5072192;28;20028;-43
2023/04/20 10:59:33;;;;;;;6.65;2.75;;;10.80;99.90;;;;;;5072192;28;20027;-39
2023/04/20 11:02:00;;;;;;;3.85;2.78;;;11.20;99.90;;;;;;5059525;28;20025;-42
2023/04/20 11:04:33;;;;;;;5.35;2.63;;;11.40;99.90;;;;;;5072178;28;20033;-47
2023/04/20 11:07:06;;;;;;;9.60;3.00;;;11.50;99.90;;;;;;5072462;28;20033;-41
2023/04/20 11:09:33;;;;;;;3.40;2.83;;;11.40;99.90;;;;;;5072426;28;20021;-42
2023/04/20 11:12:06;;;;;;;7.75;2.88;;;11.40;99.90;;;;;;5071600;28;20438;-43
2023/04/20 11:14:39;;;;;;;3.83;2.88;;;11.50;99.90;;;;;;5069926;28;20028;-42
2023/04/20 11:17:05;;;;;;;4.50;2.70;;;11.50;99.90;;;;;;5063091;28;20400;-34
2023/04/20 11:19:35;;;;;;;6.90;3.25;;;11.30;99.90;;;;;;5070888;28;20029;-42
2023/04/20 11:22:03;;;;;;;9.00;3.05;;;11.10;99.90;;;;;;5073831;28;20473;-39
2023/04/20 11:24:30;;;;;;;;;;;11.20;99.90;;;;;;5064595;28;20032;-43
2023/04/20 11:26:56;;;;;;;4.07;2.78;;;11.30;99.90;;;;;;5062995;28;20392;-42
2023/04/20 11:29:32;;;;;;;3.80;2.50;;;11.30;99.90;;;;;;5070810;28;20024;-43
2023/04/20 11:32:05;;;;;;;9.02;3.85;;;11.30;99.90;;;;;;5070707;28;20505;-42
2023/04/20 11:34:31;;;;;;;5.22;2.80;;;11.40;99.90;;;;;;5072144;28;20515;-43
2023/04/20 11:37:06;;;;;;;2.97;2.25;;;11.80;99.90;;;;;;5063266;28;20103;-45
2023/04/20 11:39:32;;;;;;;6.38;3.72;;;12.20;99.90;;;;;;5059907;28;20408;-44
2023/04/20 11:41:58;;;;;;;3.83;2.58;;;12.10;99.90;;;;;;5055191;28;20025;-43
2023/04/20 11:44:25;;;;;;;7.00;2.65;;;11.90;99.90;;;;;;5065063;28;20107;-42
2023/04/20 11:46:56;;;;;;;8.38;3.97;;;11.90;99.90;;;;;;5072391;28;20029;-42
2023/04/20 11:49:23;;;;;;;6.30;3.00;;;11.80;99.90;;;;;;5065933;28;20490;-36
2023/04/20 11:51:49;;;;;;;7.93;3.15;;;11.70;99.90;;;;;;5062189;28;20024;-32
2023/04/20 11:54:15;;;;;;;3.60;2.25;;;11.60;99.90;;;;;;5054438;28;20029;-41
2023/04/20 11:56:41;;;;;;;6.10;3.15;;;11.70;99.90;;;;;;5064557;28;20060;-40
2023/04/20 11:59:10;;;;;;;8.00;2.80;;;11.70;99.90;;;;;;5062269;28;20481;-41
2023/04/20 12:01:37;;;;;;;6.55;2.90;;;11.80;99.90;;;;;;5070534;28;20384;-38
2023/04/20 12:04:03;;;;;;;5.45;2.60;;;12.00;99.90;;;;;;5068326;28;20603;-41
2023/04/20 12:06:30;;;;;;;4.75;2.45;;;12.10;99.90;;;;;;5073025;28;20488;-41
2023/04/20 12:08:56;;;;;;;5.13;2.70;;;12.00;99.90;;;;;;5070700;28;20432;-38
2023/04/20 12:11:23;;;;;;;8.90;2.95;;;12.00;99.90;;;;;;5072891;28;20060;-36
2023/04/20 12:13:49;;;;;;;4.38;2.97;;;11.90;99.90;;;;;;5068039;28;20546;-36
2023/04/20 12:16:15;;;;;;;5.13;3.03;;;11.70;99.90;;;;;;5066162;28;20104;-37
2023/04/20 12:18:40;;;;;;;9.05;3.20;;;11.70;99.90;;;;;;5069111;28;20031;-35
2023/04/20 12:21:06;;;;;;;8.63;3.08;;;11.70;99.90;;;;;;5068298;28;20137;-33
2023/04/20 12:23:33;;;;;;;5.60;3.22;;;11.70;99.90;;;;;;5069314;28;20111;-37
2023/04/20 12:25:58;;;;;;;5.40;3.28;;;11.50;99.90;;;;;;5060567;28;20071;-39
2023/04/20 12:28:24;;;;;;;5.53;3.35;;;11.40;99.90;;;;;;5073876;28;20052;-36
2023/04/20 12:30:50;;;;;;;4.93;2.50;;;11.30;99.90;;;;;;5072797;28;20036;-31
2023/04/20 12:33:15;;;;;;;2.35;2.15;;;11.20;99.90;;;;;;5067860;28;20020;-36
2023/04/20 12:35:42;;;;;;;3.05;2.42;;;11.30;99.90;;;;;;5071331;28;20027;-34
2023/04/20 12:38:08;;;;;;;5.28;2.38;;;11.20;99.90;;;;;;5063707;28;20017;-37
2023/04/20 12:40:34;;;;;;;3.88;2.40;;;11.20;99.90;;;;;;5066905;28;20021;-36
2023/04/20 12:42:59;;;;;;;3.30;2.45;;;11.30;99.90;;;;;;5072895;28;20488;-39
2023/04/20 12:45:25;;;;;;;4.35;2.60;;;11.30;99.90;;;;;;5056191;28;20071;-34
2023/04/20 12:47:51;;;;;;;3.05;2.45;;;11.40;99.90;;;;;;5071196;28;20029;-35
2023/04/20 12:50:17;;;;;;;2.85;2.38;;;11.40;99.90;;;;;;5070393;28;20028;-36
2023/04/20 12:52:42;;;;;;;7.57;2.38;;;11.40;99.90;;;;;;5072364;28;20024;-33